CPX718 Details

Departure: Juan Santamar?a International Airport (MROC)
Arrival: Miami International Airport (KMIA) at N/A
Route: UCA UA301 URSUS FLIPR6
Notes:


Current Weather Information
MROC 231200Z 07008KT 040V100 9999 FEW040 SCT160 21/17 A2997 NOSIG
KMIA 231153Z 00000KT 10SM FEW008 FEW020 SCT250 27/24 A2999 RMK AO2 SLP155 T02670239 10267 20256 51009